Time;durP1;ratioP1;P1;durP2;ratioP2;P2;SDS_P1;SDS_P2;PMS_P1;PMS_P2;Temp;Humidity;BMP_temperature;BMP_pressure;BME280_temperature;BME280_humidity;BME280_pressure;Samples;Min_cycle;Max_cycle;Signal;HPM_P1;HPM_P2
2022/03/13 00:00:46;;;;;;;13.63;5.88;;;-0.10;95.50;;;;;;5076890;28;20024;-70
2022/03/13 00:03:13;;;;;;;10.40;4.13;;;-0.20;95.60;;;;;;5075640;28;20020;-70
2022/03/13 00:05:41;;;;;;;13.02;5.07;;;-0.20;95.60;;;;;;5075498;28;20029;-70
2022/03/13 00:08:32;;;;;;;9.65;4.35;;;-0.20;95.80;;;;;;5076809;28;20377;-71
2022/03/13 00:11:01;;;;;;;10.18;5.00;;;-0.30;95.80;;;;;;5076684;28;20465;-71
2022/03/13 00:13:32;;;;;;;10.60;4.43;;;-0.30;95.70;;;;;;5076665;28;20016;-70
2022/03/13 00:16:08;;;;;;;11.48;4.88;;;-0.40;95.70;;;;;;5076940;28;20465;-70
2022/03/13 00:18:44;;;;;;;11.68;4.93;;;-0.40;95.80;;;;;;5075323;28;20040;-70
2022/03/13 00:21:10;;;;;;;7.60;4.15;;;-0.40;95.60;;;;;;5076497;28;20384;-70
2022/03/13 00:23:36;;;;;;;9.30;4.28;;;-0.50;95.50;;;;;;5076441;28;20021;-70
2022/03/13 00:26:03;;;;;;;9.65;4.20;;;-0.40;95.40;;;;;;5075089;28;20056;-70
2022/03/13 00:28:29;;;;;;;10.15;4.43;;;-0.50;95.30;;;;;;5076657;28;20020;-70
2022/03/13 00:30:55;;;;;;;13.52;6.25;;;-0.60;95.50;;;;;;5076530;28;20103;-70
2022/03/13 00:33:21;;;;;;;12.02;5.32;;;-0.70;96.00;;;;;;5074991;28;20040;-70
2022/03/13 00:35:46;;;;;;;13.75;5.35;;;-0.80;96.90;;;;;;5077041;28;20025;-71
2022/03/13 00:38:12;;;;;;;9.00;4.53;;;-0.90;97.50;;;;;;5076171;28;20081;-71
2022/03/13 00:40:39;;;;;;;12.07;4.45;;;-1.00;97.60;;;;;;5076642;28;20457;-71
2022/03/13 00:43:07;;;;;;;11.85;3.90;;;-1.00;97.70;;;;;;5076386;28;20376;-71
2022/03/13 00:45:33;;;;;;;9.18;3.92;;;-1.00;97.70;;;;;;5075565;28;20112;-70
2022/03/13 00:47:59;;;;;;;6.88;4.03;;;-1.00;97.30;;;;;;5075209;28;20070;-70
2022/03/13 00:50:26;;;;;;;10.45;3.83;;;-1.00;97.40;;;;;;5075912;28;20556;-71
2022/03/13 00:52:52;;;;;;;11.52;5.20;;;-1.00;97.60;;;;;;5075951;28;20423;-70
2022/03/13 00:55:18;;;;;;;10.07;4.25;;;-1.00;98.20;;;;;;5075894;28;20033;-70
2022/03/13 00:57:44;;;;;;;10.63;4.53;;;-1.10;98.40;;;;;;5075772;28;20115;-71
2022/03/13 01:00:13;;;;;;;13.07;5.10;;;-1.10;98.50;;;;;;5074471;28;20111;-71
2022/03/13 01:02:51;;;;;;;10.57;5.22;;;-1.10;98.30;;;;;;5075804;28;20431;-71
2022/03/13 01:05:23;;;;;;;10.25;5.03;;;-1.10;98.20;;;;;;5057052;28;20106;-71
2022/03/13 01:07:51;;;;;;;9.00;4.38;;;-1.20;98.60;;;;;;5076025;28;20025;-71
2022/03/13 01:10:17;;;;;;;7.70;4.47;;;-1.20;98.50;;;;;;5075573;28;20078;-70
2022/03/13 01:12:43;;;;;;;8.63;4.35;;;-1.20;98.50;;;;;;5075874;28;20496;-71
2022/03/13 01:15:10;;;;;;;6.88;3.80;;;-1.20;98.30;;;;;;5075567;28;20500;-71
2022/03/13 01:17:36;;;;;;;8.45;3.70;;;-1.10;98.00;;;;;;5075540;28;20107;-70
2022/03/13 01:20:04;;;;;;;9.32;4.22;;;-1.10;97.80;;;;;;5075401;28;20523;-71
2022/03/13 01:22:30;;;;;;;7.53;3.70;;;-1.10;97.60;;;;;;5075438;28;20028;-71
2022/03/13 01:24:56;;;;;;;7.93;3.80;;;-1.10;97.50;;;;;;5075563;28;20579;-71
2022/03/13 01:27:22;;;;;;;11.15;4.22;;;-1.20;97.50;;;;;;5075642;28;20465;-71
2022/03/13 01:29:49;;;;;;;13.35;4.70;;;-1.20;97.50;;;;;;5075191;28;20025;-71
2022/03/13 01:32:15;;;;;;;9.27;4.45;;;-1.20;97.80;;;;;;5075140;28;20046;-70
2022/03/13 01:34:51;;;;;;;12.65;5.00;;;-1.20;98.00;;;;;;5075173;28;20095;-71
2022/03/13 01:37:30;;;;;;;12.95;4.90;;;-1.20;98.10;;;;;;5075670;28;20025;-71
2022/03/13 01:39:59;;;;;;;11.27;4.72;;;-1.30;98.50;;;;;;5075316;28;20108;-70
2022/03/13 01:42:25;;;;;;;9.20;4.70;;;-1.30;98.50;;;;;;5073710;28;20035;-71
2022/03/13 01:44:51;;;;;;;11.48;4.65;;;-1.30;98.50;;;;;;5075405;28;20150;-71
2022/03/13 01:47:17;;;;;;;9.82;4.68;;;-1.40;98.40;;;;;;5074916;28;20053;-71
2022/03/13 01:49:42;;;;;;;9.10;4.38;;;-1.50;98.30;;;;;;5074780;28;20023;-71
2022/03/13 01:52:09;;;;;;;8.77;4.63;;;-1.50;98.30;;;;;;5074791;28;20473;-70
2022/03/13 01:54:34;;;;;;;9.82;4.57;;;-1.50;98.20;;;;;;5074810;28;20059;-70
2022/03/13 01:57:00;;;;;;;11.35;4.75;;;-1.60;98.30;;;;;;5074582;28;20025;-70
2022/03/13 01:59:28;;;;;;;9.52;4.38;;;-1.60;98.60;;;;;;5074414;28;20025;-70
2022/03/13 02:01:54;;;;;;;11.13;4.85;;;-1.60;98.90;;;;;;5074640;28;20028;-70
2022/03/13 02:04:28;;;;;;;9.15;4.78;;;-1.70;99.60;;;;;;5074494;28;20070;-71
2022/03/13 02:06:58;;;;;;;9.63;4.57;;;-1.80;99.80;;;;;;5074853;28;20354;-71
2022/03/13 02:09:25;;;;;;;12.82;4.65;;;-1.80;99.90;;;;;;5074700;28;20070;-71
2022/03/13 02:11:51;;;;;;;8.55;4.18;;;-1.80;99.90;;;;;;5074669;28;20036;-70
2022/03/13 02:14:20;;;;;;;9.80;4.65;;;-1.80;99.80;;;;;;5074620;28;20021;-71
2022/03/13 02:16:47;;;;;;;11.63;5.10;;;-1.80;99.90;;;;;;5074311;28;20103;-71
2022/03/13 02:19:14;;;;;;;10.07;4.32;;;-1.80;99.90;;;;;;5074477;28;20028;-70
2022/03/13 02:21:44;;;;;;;10.00;4.20;;;-1.90;99.90;;;;;;5074212;28;20017;-71
2022/03/13 02:24:17;;;;;;;7.97;3.78;;;-1.90;99.90;;;;;;5074202;28;20020;-71
2022/03/13 02:26:44;;;;;;;11.65;4.75;;;-1.90;99.90;;;;;;5074383;28;20113;-71
2022/03/13 02:29:13;;;;;;;8.50;4.20;;;-1.90;99.50;;;;;;5074290;28;20413;-71
2022/03/13 02:31:40;;;;;;;7.97;3.78;;;-1.90;99.30;;;;;;5074298;28;20031;-71
2022/03/13 02:34:11;;;;;;;7.65;3.60;;;-1.90;99.00;;;;;;5072710;28;20469;-71
2022/03/13 02:36:37;;;;;;;8.05;4.00;;;-1.80;98.70;;;;;;5073988;28;20044;-71
2022/03/13 02:39:04;;;;;;;9.93;3.80;;;-1.90;98.50;;;;;;5073857;28;20535;-71
2022/03/13 02:41:30;;;;;;;9.38;3.75;;;-1.90;98.20;;;;;;5074105;28;20491;-71
2022/03/13 02:43:57;;;;;;;8.70;3.67;;;-2.00;98.20;;;;;;5073857;28;20020;-71
2022/03/13 02:46:24;;;;;;;11.05;4.60;;;-2.00;98.50;;;;;;5072451;28;20029;-71
2022/03/13 02:48:51;;;;;;;9.73;4.20;;;-2.00;98.80;;;;;;5073687;28;20043;-71
2022/03/13 02:51:18;;;;;;;8.50;4.30;;;-2.00;99.00;;;;;;5073711;28;20490;-71
2022/03/13 02:53:44;;;;;;;10.40;4.65;;;-2.10;99.20;;;;;;5074261;28;20085;-70
2022/03/13 02:56:10;;;;;;;9.38;3.83;;;-2.10;99.40;;;;;;5073654;28;20389;-71
2022/03/13 02:58:36;;;;;;;10.18;4.40;;;-2.10;99.70;;;;;;5073566;28;20396;-71
2022/03/13 03:01:03;;;;;;;7.85;3.70;;;-2.10;99.90;;;;;;5073523;28;20149;-71
2022/03/13 03:03:29;;;;;;;12.65;4.47;;;-2.20;99.90;;;;;;5073576;28;20028;-71
2022/03/13 03:05:54;;;;;;;9.77;4.35;;;-2.30;99.90;;;;;;5073745;28;20033;-71
2022/03/13 03:08:21;;;;;;;10.85;4.82;;;-2.40;99.90;;;;;;5073546;28;20070;-71
2022/03/13 03:10:48;;;;;;;9.27;4.28;;;-2.40;99.90;;;;;;5072662;28;20020;-71
2022/03/13 03:13:14;;;;;;;9.20;3.85;;;-2.40;99.90;;;;;;5073465;28;20056;-71
2022/03/13 03:15:41;;;;;;;8.60;4.25;;;-2.30;99.90;;;;;;5073718;28;20020;-72
2022/03/13 03:18:09;;;;;;;8.15;3.90;;;-2.40;99.90;;;;;;5073423;28;20095;-71
2022/03/13 03:20:36;;;;;;;10.77;4.28;;;-2.40;99.90;;;;;;5073589;28;20107;-71
2022/03/13 03:23:02;;;;;;;9.05;3.63;;;-2.40;99.90;;;;;;5073339;28;20052;-71
2022/03/13 03:25:28;;;;;;;10.18;4.38;;;-2.40;99.90;;;;;;5073821;28;20029;-71
2022/03/13 03:27:57;;;;;;;9.68;4.03;;;-2.40;99.90;;;;;;5073573;28;20035;-72
2022/03/13 03:30:24;;;;;;;9.15;3.83;;;-2.50;99.90;;;;;;5071906;28;20021;-72
2022/03/13 03:32:51;;;;;;;8.80;3.95;;;-2.50;99.90;;;;;;5073254;28;20017;-72
2022/03/13 03:35:19;;;;;;;7.93;3.67;;;-2.50;99.90;;;;;;5073340;28;20389;-71
2022/03/13 03:37:46;;;;;;;10.13;4.47;;;-2.60;99.70;;;;;;5071934;28;20051;-72
2022/03/13 03:40:12;;;;;;;9.18;4.00;;;-2.60;99.50;;;;;;5073372;28;20020;-72
2022/03/13 03:42:38;;;;;;;8.18;3.47;;;-2.70;98.70;;;;;;5071905;28;20032;-72
2022/03/13 03:45:04;;;;;;;8.82;3.75;;;-2.80;99.00;;;;;;5073026;28;20029;-72
2022/03/13 03:47:30;;;;;;;8.13;3.78;;;-2.80;99.40;;;;;;5073718;28;20016;-72
2022/03/13 03:49:56;;;;;;;10.95;4.53;;;-2.80;99.80;;;;;;5072989;28;20098;-72
2022/03/13 03:52:22;;;;;;;10.10;5.15;;;-2.80;99.90;;;;;;5072115;28;20112;-71
2022/03/13 03:54:48;;;;;;;8.82;4.25;;;-2.90;99.90;;;;;;5073347;28;20020;-71
2022/03/13 03:57:13;;;;;;;11.63;4.68;;;-3.00;99.90;;;;;;5071902;28;20072;-72
2022/03/13 03:59:39;;;;;;;7.53;3.90;;;-3.10;99.90;;;;;;5071641;28;20031;-72
2022/03/13 04:02:04;;;;;;;9.35;4.03;;;-3.00;99.90;;;;;;5072965;28;20020;-72
2022/03/13 04:04:30;;;;;;;7.47;3.35;;;-3.10;99.90;;;;;;5073429;28;20354;-72
2022/03/13 04:06:57;;;;;;;9.13;3.70;;;-3.00;99.90;;;;;;5072919;28;20025;-72
2022/03/13 04:09:22;;;;;;;8.95;4.03;;;-3.00;99.90;;;;;;5072870;28;20024;-72
2022/03/13 04:11:48;;;;;;;7.45;3.88;;;-3.00;99.90;;;;;;5073459;28;20100;-72
2022/03/13 04:14:15;;;;;;;7.47;3.33;;;-3.00;99.90;;;;;;5073421;28;20492;-72
2022/03/13 04:16:41;;;;;;;7.63;3.45;;;-3.00;99.90;;;;;;5072875;28;20031;-72
2022/03/13 04:19:11;;;;;;;7.70;3.58;;;-3.00;99.90;;;;;;5072756;28;20017;-72
2022/03/13 04:21:41;;;;;;;8.35;4.10;;;-3.00;99.90;;;;;;5075299;28;20142;-72
2022/03/13 04:24:08;;;;;;;8.63;4.03;;;-3.10;99.90;;;;;;5076806;28;20358;-72
2022/03/13 04:26:34;;;;;;;8.43;3.83;;;-3.10;99.90;;;;;;5076364;28;20543;-72
2022/03/13 04:29:00;;;;;;;8.68;4.13;;;-3.10;99.90;;;;;;5076338;28;20049;-72
2022/03/13 04:31:25;;;;;;;8.55;3.70;;;-3.10;99.90;;;;;;5075066;28;20042;-72
2022/03/13 04:33:51;;;;;;;8.27;3.83;;;-3.10;99.90;;;;;;5076859;28;20512;-72
2022/03/13 04:36:26;;;;;;;10.32;3.78;;;-3.20;99.90;;;;;;5076488;28;20431;-72
2022/03/13 04:38:52;;;;;;;10.43;4.20;;;-3.20;99.90;;;;;;5074985;28;20025;-72
2022/03/13 04:41:18;;;;;;;9.15;4.10;;;-3.20;99.90;;;;;;5076442;28;20050;-72
2022/03/13 04:43:45;;;;;;;8.77;4.38;;;-3.20;99.90;;;;;;5076693;28;20100;-72
2022/03/13 04:46:10;;;;;;;8.25;3.65;;;-3.20;99.90;;;;;;5076457;28;20031;-72
2022/03/13 04:48:37;;;;;;;8.15;3.90;;;-3.10;99.90;;;;;;5074798;28;20021;-72
2022/03/13 04:51:03;;;;;;;10.20;4.10;;;-3.10;99.90;;;;;;5075985;28;20019;-72
2022/03/13 04:53:29;;;;;;;8.55;4.00;;;-3.10;99.90;;;;;;5076021;28;20029;-72
2022/03/13 04:55:56;;;;;;;10.60;4.35;;;-3.10;99.90;;;;;;5075937;28;20025;-72
2022/03/13 04:58:21;;;;;;;8.65;3.83;;;-3.10;99.90;;;;;;5075761;28;20032;-72
2022/03/13 05:00:47;;;;;;;12.18;4.50;;;-3.10;99.90;;;;;;5074535;28;20404;-72
2022/03/13 05:03:16;;;;;;;8.82;4.00;;;-3.10;99.90;;;;;;5075789;28;20196;-72
2022/03/13 05:05:42;;;;;;;10.73;4.25;;;-3.10;99.90;;;;;;5075668;28;20523;-73
2022/03/13 05:08:15;;;;;;;10.27;3.88;;;-3.00;99.90;;;;;;5075696;28;20028;-73
2022/03/13 05:10:42;;;;;;;8.25;3.75;;;-3.00;99.90;;;;;;5075692;28;20091;-72
2022/03/13 05:13:11;;;;;;;8.60;3.70;;;-3.00;99.90;;;;;;5076155;28;20039;-70
2022/03/13 05:15:37;;;;;;;8.93;3.53;;;-3.00;99.90;;;;;;5075829;28;20469;-70
2022/03/13 05:18:04;;;;;;;8.55;4.00;;;-3.10;99.90;;;;;;5074286;28;20412;-70
2022/03/13 05:20:31;;;;;;;8.38;3.85;;;-3.10;99.90;;;;;;5075385;28;20034;-70
2022/03/13 05:22:57;;;;;;;9.35;3.53;;;-3.10;99.90;;;;;;5075423;28;20030;-70
2022/03/13 05:25:24;;;;;;;8.60;4.55;;;-3.10;99.90;;;;;;5075296;28;20497;-70
2022/03/13 05:27:51;;;;;;;8.15;3.65;;;-3.20;99.90;;;;;;5075342;28;20024;-70
2022/03/13 05:30:17;;;;;;;9.43;4.03;;;-3.20;99.90;;;;;;5075212;28;20108;-70
2022/03/13 05:32:43;;;;;;;8.63;4.00;;;-3.30;99.90;;;;;;5074506;28;20020;-70
2022/03/13 05:35:10;;;;;;;9.05;4.35;;;-3.40;99.90;;;;;;5075239;28;20519;-70
2022/03/13 05:37:36;;;;;;;10.20;4.85;;;-3.40;99.90;;;;;;5075027;28;20029;-70
2022/03/13 05:40:03;;;;;;;12.27;5.75;;;-3.40;99.90;;;;;;5074989;28;20016;-70
2022/03/13 05:42:29;;;;;;;16.80;7.60;;;-3.40;99.90;;;;;;5075161;28;20029;-70
2022/03/13 05:44:54;;;;;;;15.48;7.47;;;-3.40;99.90;;;;;;5074855;28;20039;-70
2022/03/13 05:47:21;;;;;;;12.82;6.30;;;-3.40;99.90;;;;;;5074911;28;20045;-70
2022/03/13 05:49:47;;;;;;;13.48;5.43;;;-3.40;99.90;;;;;;5074836;28;20052;-70
2022/03/13 05:52:15;;;;;;;10.15;5.03;;;-3.40;99.90;;;;;;5075113;28;20526;-70
2022/03/13 05:54:44;;;;;;;10.40;4.20;;;-3.40;99.90;;;;;;5074789;28;20025;-70
2022/03/13 05:57:11;;;;;;;11.02;4.63;;;-3.40;99.90;;;;;;5073392;28;20044;-70
2022/03/13 05:59:39;;;;;;;8.82;4.40;;;-3.50;99.90;;;;;;5073357;28;20029;-70
2022/03/13 06:02:07;;;;;;;8.60;4.20;;;-3.50;99.90;;;;;;5074650;28;20048;-70
2022/03/13 06:04:35;;;;;;;12.07;6.20;;;-3.50;99.90;;;;;;5074515;28;20081;-70
2022/03/13 06:07:01;;;;;;;14.68;7.13;;;-3.50;99.90;;;;;;5074794;28;20384;-70
2022/03/13 06:09:27;;;;;;;17.35;8.60;;;-3.40;99.90;;;;;;5074482;28;20013;-70
2022/03/13 06:11:53;;;;;;;21.35;9.25;;;-3.40;99.90;;;;;;5074756;28;20059;-70
2022/03/13 06:14:19;;;;;;;12.07;5.82;;;-3.40;99.90;;;;;;5074637;28;20024;-70
2022/03/13 06:16:45;;;;;;;14.15;4.90;;;-3.40;99.90;;;;;;5074315;28;20017;-70
2022/03/13 06:19:10;;;;;;;9.52;4.55;;;-3.40;99.90;;;;;;5074189;28;20079;-70
2022/03/13 06:21:39;;;;;;;8.23;3.95;;;-3.40;99.90;;;;;;5074258;28;20468;-70
2022/03/13 06:24:04;;;;;;;8.20;3.08;;;-3.40;99.90;;;;;;5074499;28;20477;-70
2022/03/13 06:26:31;;;;;;;10.80;4.40;;;-3.40;99.90;;;;;;5074124;28;20078;-70
2022/03/13 06:28:57;;;;;;;9.02;4.20;;;-3.40;99.90;;;;;;5073998;28;20048;-70
2022/03/13 06:31:23;;;;;;;9.88;4.68;;;-3.40;99.90;;;;;;5074064;28;20024;-70
2022/03/13 06:33:48;;;;;;;10.48;4.85;;;-3.40;99.90;;;;;;5074008;28;20055;-70
2022/03/13 06:36:14;;;;;;;10.32;5.13;;;-3.50;99.90;;;;;;5073985;28;20437;-70
2022/03/13 06:38:40;;;;;;;9.80;4.30;;;-3.50;99.90;;;;;;5074010;28;20043;-70
2022/03/13 06:41:05;;;;;;;11.02;4.82;;;-3.40;99.90;;;;;;5073828;28;20029;-70
2022/03/13 06:43:33;;;;;;;9.63;4.30;;;-3.30;99.90;;;;;;5074192;28;20047;-70
2022/03/13 06:45:58;;;;;;;8.98;4.28;;;-3.30;99.90;;;;;;5073797;28;20546;-70
2022/03/13 06:48:26;;;;;;;9.18;4.47;;;-3.30;99.90;;;;;;5073821;28;20055;-70
2022/03/13 06:50:53;;;;;;;9.00;4.70;;;-3.20;99.90;;;;;;5073639;28;20028;-70
2022/03/13 06:53:19;;;;;;;9.88;4.80;;;-3.10;99.90;;;;;;5074036;28;20012;-70
2022/03/13 06:55:45;;;;;;;10.77;4.40;;;-3.00;99.90;;;;;;5073693;28;20361;-70
2022/03/13 06:58:11;;;;;;;11.90;5.00;;;-2.90;99.90;;;;;;5073704;28;20032;-70
2022/03/13 07:00:37;;;;;;;12.98;5.07;;;-2.90;99.90;;;;;;5073596;28;20542;-70
2022/03/13 07:03:02;;;;;;;10.60;5.13;;;-2.80;99.90;;;;;;5072333;28;20032;-71
2022/03/13 07:05:28;;;;;;;10.50;5.18;;;-2.70;99.90;;;;;;5073481;28;20038;-70
2022/03/13 07:07:55;;;;;;;12.65;5.00;;;-2.60;99.90;;;;;;5073566;28;20025;-70
2022/03/13 07:10:21;;;;;;;10.90;5.10;;;-2.60;99.90;;;;;;5073444;28;20024;-70
2022/03/13 07:12:48;;;;;;;9.70;5.38;;;-2.50;99.90;;;;;;5073767;28;20528;-70
2022/03/13 07:15:14;;;;;;;12.35;5.90;;;-2.40;99.90;;;;;;5073725;28;20111;-70
2022/03/13 07:17:41;;;;;;;10.18;5.22;;;-2.30;99.90;;;;;;5073450;28;20029;-70
2022/03/13 07:20:07;;;;;;;11.85;5.50;;;-2.20;99.90;;;;;;5073376;28;20582;-70
2022/03/13 07:22:33;;;;;;;9.38;4.82;;;-2.20;99.90;;;;;;5073667;28;20472;-71
2022/03/13 07:24:59;;;;;;;10.57;5.13;;;-2.20;99.90;;;;;;5073271;28;20035;-71
2022/03/13 07:27:24;;;;;;;11.75;5.82;;;-2.10;99.90;;;;;;5073385;28;20032;-70
2022/03/13 07:29:51;;;;;;;8.60;4.85;;;-2.00;99.90;;;;;;5073537;28;20033;-70
2022/03/13 07:32:17;;;;;;;12.23;5.43;;;-1.90;99.90;;;;;;5073304;28;20465;-70
2022/03/13 07:34:43;;;;;;;10.90;6.10;;;-1.90;99.90;;;;;;5073265;28;20171;-70
2022/03/13 07:37:11;;;;;;;10.95;4.78;;;-1.80;99.90;;;;;;5073289;28;20536;-70
2022/03/13 07:39:39;;;;;;;12.38;6.20;;;-1.70;99.90;;;;;;5071906;28;20025;-70
2022/03/13 07:42:06;;;;;;;16.77;8.65;;;-1.70;99.90;;;;;;5073191;28;20025;-70
2022/03/13 07:44:32;;;;;;;17.08;8.70;;;-1.60;99.90;;;;;;5073613;28;20032;-70
2022/03/13 07:46:57;;;;;;;11.68;6.68;;;-1.50;99.90;;;;;;5073178;28;20027;-70
2022/03/13 07:49:23;;;;;;;11.85;6.03;;;-1.50;99.90;;;;;;5073008;28;20060;-70
2022/03/13 07:51:49;;;;;;;12.75;4.90;;;-1.40;99.90;;;;;;5073357;28;20017;-70
2022/03/13 07:54:16;;;;;;;10.40;5.18;;;-1.30;99.90;;;;;;5073084;28;20095;-70
2022/03/13 07:56:42;;;;;;;11.38;5.18;;;-1.20;99.90;;;;;;5075422;28;20033;-70
2022/03/13 07:59:08;;;;;;;8.63;4.35;;;-1.10;99.90;;;;;;5077414;28;20512;-70
2022/03/13 08:01:33;;;;;;;12.57;5.22;;;-1.00;99.90;;;;;;5075717;28;20074;-70
2022/03/13 08:04:04;;;;;;;11.10;5.28;;;-0.90;99.90;;;;;;5077213;28;20103;-70
2022/03/13 08:06:34;;;;;;;11.25;6.03;;;-0.70;99.90;;;;;;5077417;28;20476;-70
2022/03/13 08:09:04;;;;;;;14.60;6.28;;;-0.70;99.90;;;;;;5077354;28;20027;-70
2022/03/13 08:11:30;;;;;;;16.58;7.15;;;-0.50;99.90;;;;;;5076777;28;20020;-70
2022/03/13 08:13:56;;;;;;;17.17;7.68;;;-0.40;99.90;;;;;;5076713;28;20043;-70
2022/03/13 08:16:21;;;;;;;14.32;6.55;;;-0.30;99.90;;;;;;5077249;28;20461;-70
2022/03/13 08:18:47;;;;;;;18.27;7.68;;;-0.20;99.80;;;;;;5076763;28;20024;-70
2022/03/13 08:21:13;;;;;;;16.52;7.68;;;-0.10;99.60;;;;;;5076569;28;20024;-70
2022/03/13 08:23:39;;;;;;;17.50;8.25;;;0.10;99.00;;;;;;5075272;28;20043;-70
2022/03/13 08:26:05;;;;;;;15.20;8.15;;;0.20;98.50;;;;;;5076374;28;20024;-70
2022/03/13 08:28:31;;;;;;;16.65;8.20;;;0.30;98.30;;;;;;5076721;28;20394;-70
2022/03/13 08:30:58;;;;;;;19.08;8.65;;;0.40;98.00;;;;;;5076567;28;20024;-70
2022/03/13 08:33:24;;;;;;;16.27;7.72;;;0.50;97.80;;;;;;5076702;28;20028;-70
2022/03/13 08:35:49;;;;;;;15.73;7.82;;;0.60;97.70;;;;;;5076314;28;20112;-70
2022/03/13 08:38:16;;;;;;;14.15;7.70;;;0.70;97.50;;;;;;5076254;28;20028;-70
2022/03/13 08:40:42;;;;;;;17.58;8.27;;;0.80;96.50;;;;;;5074891;28;20093;-70
2022/03/13 08:43:07;;;;;;;15.38;7.50;;;0.90;95.50;;;;;;5076455;28;20399;-70
2022/03/13 08:45:33;;;;;;;14.43;8.23;;;1.10;94.90;;;;;;5076104;28;20036;-70
2022/03/13 08:47:59;;;;;;;17.13;8.38;;;1.10;94.20;;;;;;5076384;28;20384;-70
2022/03/13 08:50:24;;;;;;;15.18;7.75;;;1.30;93.70;;;;;;5076034;28;20062;-70
2022/03/13 08:52:51;;;;;;;17.67;8.15;;;1.40;93.10;;;;;;5076300;28;20024;-70
2022/03/13 08:55:18;;;;;;;20.92;9.52;;;1.50;92.70;;;;;;5076010;28;20151;-70
2022/03/13 08:57:45;;;;;;;17.38;9.25;;;1.60;92.20;;;;;;5075836;28;20162;-70
2022/03/13 09:00:16;;;;;;;18.58;8.52;;;1.70;91.40;;;;;;5075803;28;20024;-70
2022/03/13 09:02:44;;;;;;;19.17;9.32;;;1.90;90.80;;;;;;5076186;28;20032;-70
2022/03/13 09:05:10;;;;;;;22.33;11.30;;;2.00;90.50;;;;;;5075689;28;20016;-70
2022/03/13 09:07:36;;;;;;;28.02;12.60;;;2.10;90.10;;;;;;5074586;28;20055;-70
2022/03/13 09:10:07;;;;;;;23.90;12.32;;;2.30;88.50;;;;;;5075659;28;20523;-69
2022/03/13 09:12:34;;;;;;;20.92;11.52;;;2.40;87.50;;;;;;5075676;28;20108;-69
2022/03/13 09:15:00;;;;;;;24.45;12.77;;;2.50;87.40;;;;;;5076179;28;20028;-70
2022/03/13 09:17:26;;;;;;;20.92;10.77;;;2.60;86.80;;;;;;5075821;28;20032;-70
2022/03/13 09:19:53;;;;;;;21.83;12.25;;;2.70;86.00;;;;;;5075569;28;20104;-70
2022/03/13 09:22:20;;;;;;;25.35;12.00;;;2.90;86.00;;;;;;5075802;28;20052;-69
2022/03/13 09:24:46;;;;;;;22.50;11.60;;;3.00;86.30;;;;;;5075299;28;20078;-70
2022/03/13 09:27:12;;;;;;;24.90;12.10;;;3.10;86.10;;;;;;5075638;28;20020;-70
2022/03/13 09:29:38;;;;;;;26.42;12.38;;;3.20;84.80;;;;;;5075293;28;20027;-70
2022/03/13 09:32:05;;;;;;;21.20;11.57;;;3.40;84.00;;;;;;5075314;28;20028;-70
2022/03/13 09:34:31;;;;;;;20.58;9.90;;;3.50;82.40;;;;;;5075272;28;20020;-70
2022/03/13 09:36:58;;;;;;;19.00;10.52;;;3.60;80.50;;;;;;5075177;28;20032;-70
2022/03/13 09:39:25;;;;;;;20.27;9.88;;;3.80;77.50;;;;;;5075093;28;20021;-70
2022/03/13 09:41:51;;;;;;;16.85;9.40;;;3.90;77.10;;;;;;5075084;28;20025;-70
2022/03/13 09:44:17;;;;;;;16.40;9.15;;;4.10;76.60;;;;;;5075050;28;20150;-70
2022/03/13 09:46:43;;;;;;;14.25;8.35;;;4.20;75.80;;;;;;5073671;28;20111;-70
2022/03/13 09:49:09;;;;;;;18.45;8.95;;;4.30;75.00;;;;;;5075156;28;20031;-70
2022/03/13 09:51:34;;;;;;;13.55;7.70;;;4.40;74.10;;;;;;5075152;28;20023;-69
2022/03/13 09:54:02;;;;;;;17.67;8.93;;;4.60;73.10;;;;;;5074882;28;20086;-70
2022/03/13 09:56:28;;;;;;;17.35;9.00;;;4.70;72.20;;;;;;5074926;28;20021;-70
2022/03/13 09:58:53;;;;;;;15.60;8.77;;;4.80;71.30;;;;;;5074989;28;20179;-69
2022/03/13 10:01:19;;;;;;;16.48;9.25;;;4.90;71.00;;;;;;5074725;28;20443;-69
2022/03/13 10:03:45;;;;;;;16.73;8.55;;;5.00;70.90;;;;;;5074654;28;20028;-69
2022/03/13 10:06:11;;;;;;;18.33;9.45;;;5.10;69.60;;;;;;5073258;28;20052;-69
2022/03/13 10:08:36;;;;;;;16.20;9.30;;;5.20;69.30;;;;;;5075126;28;20021;-69
2022/03/13 10:11:03;;;;;;;18.42;9.45;;;5.40;69.90;;;;;;5074432;28;20027;-70
2022/03/13 10:13:38;;;;;;;15.93;8.30;;;5.40;69.50;;;;;;5074484;28;20065;-70
2022/03/13 10:16:07;;;;;;;15.13;8.55;;;5.50;69.10;;;;;;5074356;28;20036;-70
2022/03/13 10:18:33;;;;;;;16.60;8.73;;;5.60;68.10;;;;;;5074066;28;20103;-70
2022/03/13 10:21:18;;;;;;;17.48;8.85;;;5.70;66.70;;;;;;5074279;28;20441;-70
2022/03/13 10:23:47;;;;;;;16.95;9.43;;;5.80;66.20;;;;;;5074341;28;20064;-71
2022/03/13 10:26:16;;;;;;;18.38;10.35;;;6.00;66.70;;;;;;5074150;28;20480;-71
2022/03/13 10:28:43;;;;;;;17.42;9.45;;;6.10;65.40;;;;;;5073138;28;20115;-71
2022/03/13 10:31:17;;;;;;;18.95;9.63;;;6.20;63.90;;;;;;5073984;28;20031;-70
2022/03/13 10:33:42;;;;;;;16.73;9.50;;;6.40;63.10;;;;;;5074413;28;20016;-70
2022/03/13 10:36:24;;;;;;;16.52;9.52;;;6.50;63.20;;;;;;5074037;28;20035;-70
2022/03/13 10:38:50;;;;;;;21.27;10.55;;;6.70;62.90;;;;;;5074158;28;20020;-71
2022/03/13 10:41:17;;;;;;;16.48;9.35;;;6.80;61.90;;;;;;5074240;28;20024;-71
2022/03/13 10:43:52;;;;;;;19.45;10.00;;;6.90;61.60;;;;;;5073924;28;20036;-71
2022/03/13 10:46:26;;;;;;;17.45;8.55;;;7.00;61.70;;;;;;5074358;28;20107;-71
2022/03/13 10:48:52;;;;;;;16.73;9.00;;;7.00;62.30;;;;;;5073751;28;20088;-71
2022/03/13 10:51:32;;;;;;;16.27;8.48;;;7.10;62.00;;;;;;5073993;28;20020;-71
2022/03/13 10:53:58;;;;;;;18.15;8.88;;;7.20;60.80;;;;;;5073987;28;20073;-70
2022/03/13 10:56:24;;;;;;;16.48;8.40;;;7.20;58.90;;;;;;5073793;28;20024;-71
2022/03/13 10:58:49;;;;;;;16.45;9.18;;;7.30;58.30;;;;;;5073874;28;20032;-70
2022/03/13 11:01:18;;;;;;;18.77;8.73;;;7.30;58.60;;;;;;5074189;28;20423;-70
2022/03/13 11:03:51;;;;;;;15.45;8.73;;;7.40;59.10;;;;;;5073626;28;20025;-69
2022/03/13 11:06:17;;;;;;;15.98;7.78;;;7.40;58.60;;;;;;5073542;28;20032;-70
2022/03/13 11:08:43;;;;;;;15.23;7.75;;;7.50;58.00;;;;;;5073513;28;20499;-69
2022/03/13 11:11:16;;;;;;;18.90;8.07;;;7.60;57.20;;;;;;5073430;28;20029;-69
2022/03/13 11:13:42;;;;;;;13.10;7.30;;;7.80;56.40;;;;;;5074291;28;20373;-67
2022/03/13 11:16:11;;;;;;;12.07;6.85;;;7.90;56.70;;;;;;5073464;28;20154;-67
2022/03/13 11:18:38;;;;;;;12.93;7.72;;;8.10;54.50;;;;;;5073481;28;20036;-68
2022/03/13 11:21:08;;;;;;;16.52;9.52;;;8.20;53.60;;;;;;5073357;28;20055;-67
2022/03/13 11:23:36;;;;;;;17.55;10.27;;;8.40;55.10;;;;;;5073389;28;20027;-67
2022/03/13 11:26:03;;;;;;;18.27;10.48;;;8.50;55.00;;;;;;5071821;28;20020;-68
2022/03/13 11:28:29;;;;;;;14.70;7.95;;;8.60;54.80;;;;;;5069001;28;20032;-68
2022/03/13 11:30:56;;;;;;;15.85;9.27;;;8.60;54.00;;;;;;5070353;28;20020;-68
2022/03/13 11:33:31;;;;;;;16.85;9.32;;;8.70;53.90;;;;;;5069674;28;20106;-68
2022/03/13 11:36:29;;;;;;;19.30;10.40;;;8.80;52.80;;;;;;5071217;28;20114;-68
2022/03/13 11:39:03;;;;;;;15.35;9.10;;;8.80;53.30;;;;;;5070934;28;20028;-68
2022/03/13 11:41:37;;;;;;;15.45;9.07;;;8.90;54.90;;;;;;5071126;28;20405;-70
2022/03/13 11:44:17;;;;;;;17.85;10.35;;;8.90;54.20;;;;;;5072277;28;20112;-67
2022/03/13 11:46:45;;;;;;;22.08;11.35;;;9.00;54.00;;;;;;5073419;28;20078;-67
2022/03/13 11:49:30;;;;;;;18.83;10.50;;;9.10;54.30;;;;;;5071808;28;20028;-67
2022/03/13 11:52:13;;;;;;;19.15;11.77;;;9.20;52.30;;;;;;5073131;28;20031;-67
2022/03/13 11:55:01;;;;;;;21.02;11.93;;;9.30;51.80;;;;;;5073081;28;20456;-67
2022/03/13 11:57:39;;;;;;;20.10;10.90;;;9.40;53.30;;;;;;5073103;28;20115;-67
2022/03/13 12:00:10;;;;;;;19.83;11.35;;;9.50;52.70;;;;;;5073108;28;20017;-67
2022/03/13 12:02:42;;;;;;;20.42;11.85;;;9.60;53.40;;;;;;5073012;28;20019;-67
2022/03/13 12:05:26;;;;;;;17.80;10.05;;;9.70;52.10;;;;;;5072905;28;20032;-67
2022/03/13 12:07:53;;;;;;;15.40;8.45;;;9.70;51.20;;;;;;5071702;28;20032;-67
2022/03/13 12:10:30;;;;;;;12.48;7.18;;;9.80;50.40;;;;;;5072845;28;20358;-67
2022/03/13 12:13:06;;;;;;;11.95;6.47;;;9.90;48.50;;;;;;5072930;28;20016;-67
2022/03/13 12:15:32;;;;;;;11.05;6.40;;;10.00;48.00;;;;;;5073237;28;20495;-67
2022/03/13 12:17:58;;;;;;;12.77;6.45;;;10.00;46.60;;;;;;5072904;28;20058;-67
2022/03/13 12:20:26;;;;;;;10.52;5.88;;;10.10;47.40;;;;;;5072815;28;20381;-67
2022/03/13 12:22:53;;;;;;;9.90;5.80;;;10.20;47.00;;;;;;5073368;28;20074;-67
2022/03/13 12:25:27;;;;;;;9.52;5.28;;;10.30;46.60;;;;;;5073009;28;20029;-67
2022/03/13 12:28:01;;;;;;;7.88;4.55;;;10.40;46.50;;;;;;5071549;28;20025;-67
2022/03/13 12:30:30;;;;;;;7.80;4.07;;;10.50;47.30;;;;;;5072963;28;20358;-67
2022/03/13 12:32:59;;;;;;;5.75;3.08;;;10.70;47.00;;;;;;5073030;28;20358;-67
2022/03/13 12:35:26;;;;;;;4.80;2.95;;;10.80;44.10;;;;;;5072678;28;20024;-67
2022/03/13 12:37:56;;;;;;;4.32;2.50;;;11.00;42.50;;;;;;5072676;28;20511;-67
2022/03/13 12:40:23;;;;;;;4.65;2.40;;;11.10;44.50;;;;;;5072577;28;20025;-67
2022/03/13 12:42:59;;;;;;;4.90;2.55;;;11.20;45.60;;;;;;5073802;28;20434;-67
2022/03/13 12:45:27;;;;;;;8.27;2.90;;;11.40;44.30;;;;;;5076675;28;20082;-68